createdAt,value
2022-08-22T00:02:03.324Z,6.60
2022-08-22T00:02:48.933Z,8.35
2022-08-22T00:02:55.205Z,13.30
2022-08-22T00:02:56.068Z,10.32
2022-08-22T00:03:01.248Z,11.82
2022-08-22T00:03:01.450Z,7.90
2022-08-22T00:03:03.384Z,15.95
2022-08-22T00:03:04.030Z,7.22
2022-08-22T00:03:08.735Z,6.25
2022-08-22T00:04:41.718Z,5.28
2022-08-22T00:07:15.439Z,7.80
2022-08-22T00:09:52.516Z,8.05
2022-08-22T00:12:33.580Z,6.40
2022-08-22T00:15:42.036Z,3.90
2022-08-22T00:18:05.660Z,6.47
2022-08-22T00:20:43.005Z,5.05
2022-08-22T00:23:22.837Z,5.72
2022-08-22T00:26:03.189Z,6.50
2022-08-22T00:28:41.174Z,6.80
2022-08-22T00:31:36.247Z,6.10
2022-08-22T00:34:07.219Z,5.50
2022-08-22T00:36:43.751Z,4.85
2022-08-22T00:39:29.166Z,4.45
2022-08-22T00:42:15.338Z,7.82
2022-08-22T00:45:08.808Z,4.45
2022-08-22T00:47:36.545Z,5.45
2022-08-22T00:50:06.726Z,4.40
2022-08-22T00:52:39.637Z,7.70
2022-08-22T00:55:35.147Z,6.20
2022-08-22T00:58:12.733Z,9.13
2022-08-22T01:00:45.230Z,7.05
2022-08-22T01:03:29.170Z,7.03
2022-08-22T01:06:15.816Z,7.35
2022-08-22T01:08:59.796Z,6.82
2022-08-22T01:11:48.415Z,4.45
2022-08-22T01:14:41.045Z,10.05
2022-08-22T01:17:45.614Z,8.20
2022-08-22T01:20:58.275Z,6.85
2022-08-22T01:23:48.722Z,8.80
2022-08-22T01:26:25.704Z,5.90
2022-08-22T01:29:38.159Z,9.02
2022-08-22T01:32:08.967Z,5.95
2022-08-22T01:34:57.699Z,6.65
2022-08-22T01:37:43.523Z,6.07
2022-08-22T01:40:33.057Z,6.53
2022-08-22T01:43:00.315Z,4.93
2022-08-22T01:45:42.115Z,6.90
2022-08-22T01:48:18.159Z,5.38
2022-08-22T01:50:53.326Z,3.42
2022-08-22T01:53:29.657Z,6.57
2022-08-22T01:55:59.727Z,7.82
2022-08-22T01:58:30.932Z,5.20
2022-08-22T02:01:35.486Z,7.88
2022-08-22T02:04:11.334Z,5.95
2022-08-22T02:06:53.447Z,5.35
2022-08-22T02:09:38.811Z,4.40
2022-08-22T02:12:22.351Z,6.07
2022-08-22T02:14:55.944Z,7.78
2022-08-22T02:17:33.248Z,6.18
2022-08-22T02:20:23.842Z,4.20
2022-08-22T02:23:19.492Z,5.60
2022-08-22T02:25:58.943Z,7.25
2022-08-22T02:28:26.191Z,6.95
2022-08-22T02:31:06.313Z,10.00
2022-08-22T02:33:45.994Z,5.97
2022-08-22T02:36:16.109Z,7.85
2022-08-22T02:38:49.686Z,4.18
2022-08-22T02:42:02.774Z,9.05
2022-08-22T02:44:42.394Z,7.10
2022-08-22T02:47:27.618Z,5.22
2022-08-22T02:50:06.845Z,8.48
2022-08-22T02:52:55.298Z,6.00
2022-08-22T02:55:46.589Z,5.60
2022-08-22T02:58:29.448Z,5.53
2022-08-22T03:00:59.632Z,5.10
2022-08-22T03:03:31.932Z,5.32
2022-08-22T03:06:22.252Z,8.82
2022-08-22T03:09:07.838Z,5.63
2022-08-22T03:11:40.500Z,5.35
2022-08-22T03:14:20.950Z,10.25
2022-08-22T03:17:16.711Z,7.07
2022-08-22T03:20:06.670Z,4.25
2022-08-22T03:22:36.908Z,7.50
2022-08-22T03:25:36.209Z,9.43
2022-08-22T03:28:10.411Z,6.95
2022-08-22T03:30:43.399Z,6.10
2022-08-22T03:33:18.681Z,6.18
2022-08-22T03:35:45.913Z,9.32
2022-08-22T03:38:33.094Z,8.82
2022-08-22T03:41:42.104Z,5.72
2022-08-22T03:44:56.280Z,6.03
2022-08-22T03:47:32.416Z,6.13
2022-08-22T03:50:08.402Z,4.63
2022-08-22T03:53:15.361Z,6.72
2022-08-22T03:56:13.846Z,7.28
2022-08-22T03:59:28.746Z,6.05
2022-08-22T04:02:43.561Z,11.02
2022-08-22T04:05:15.427Z,7.28
2022-08-22T04:08:17.831Z,9.68
2022-08-22T04:11:12.587Z,8.80
2022-08-22T04:13:54.755Z,7.43
2022-08-22T04:16:59.212Z,7.30
2022-08-22T04:19:55.291Z,8.20
2022-08-22T04:22:44.838Z,6.93
2022-08-22T04:25:17.182Z,5.90
2022-08-22T04:28:19.661Z,6.78
2022-08-22T04:30:56.990Z,5.20
2022-08-22T04:33:46.085Z,8.07
2022-08-22T04:36:32.734Z,8.93
2022-08-22T04:39:05.152Z,5.30
2022-08-22T04:41:38.021Z,7.28
2022-08-22T04:44:13.434Z,6.88
2022-08-22T04:46:54.986Z,7.97
2022-08-22T04:49:37.262Z,7.53
2022-08-22T04:52:34.971Z,10.57
2022-08-22T04:55:39.637Z,7.25
2022-08-22T04:58:34.876Z,5.90
2022-08-22T05:01:07.974Z,4.63
2022-08-22T05:03:44.829Z,8.68
2022-08-22T05:06:16.738Z,6.93
2022-08-22T05:08:48.428Z,6.07
2022-08-22T05:11:24.057Z,11.90
2022-08-22T05:14:00.424Z,6.78
2022-08-22T05:16:41.127Z,4.07
2022-08-22T05:19:37.541Z,10.07
2022-08-22T05:22:13.763Z,5.30
2022-08-22T05:24:46.629Z,5.82
2022-08-22T05:27:26.267Z,9.32
2022-08-22T05:30:06.222Z,5.70
2022-08-22T05:32:51.049Z,4.97
2022-08-22T05:35:26.349Z,6.50
2022-08-22T05:37:56.163Z,3.97
2022-08-22T05:40:27.413Z,5.70
2022-08-22T05:42:57.126Z,6.13
2022-08-22T05:45:27.401Z,6.95
2022-08-22T05:48:03.445Z,5.18
2022-08-22T05:50:51.065Z,8.73
2022-08-22T05:53:21.414Z,8.10
2022-08-22T05:56:03.773Z,5.15
2022-08-22T05:58:42.725Z,7.68
2022-08-22T06:01:58.195Z,7.32
2022-08-22T06:04:52.104Z,10.55
2022-08-22T06:07:41.960Z,11.50
2022-08-22T06:10:25.883Z,7.43
2022-08-22T06:12:56.248Z,9.52
2022-08-22T06:15:35.439Z,7.28
2022-08-22T06:18:10.602Z,8.02
2022-08-22T06:20:52.809Z,13.48
2022-08-22T06:23:28.562Z,11.70
2022-08-22T06:26:00.878Z,9.50
2022-08-22T06:28:54.513Z,9.35
2022-08-22T06:31:32.467Z,8.50
2022-08-22T06:34:02.489Z,10.50
2022-08-22T06:36:31.683Z,12.35
2022-08-22T06:39:28.166Z,8.65
2022-08-22T06:42:12.223Z,6.72
2022-08-22T06:44:49.166Z,11.05
2022-08-22T06:47:33.438Z,10.82
2022-08-22T06:50:07.324Z,8.63
2022-08-22T06:52:57.754Z,9.13
2022-08-22T06:55:28.168Z,7.03
2022-08-22T06:58:03.861Z,9.90
2022-08-22T07:00:34.821Z,7.65
2022-08-22T07:03:23.803Z,7.57
2022-08-22T07:05:55.751Z,5.55
2022-08-22T07:08:25.109Z,9.77
2022-08-22T07:11:24.670Z,6.72
2022-08-22T07:14:06.642Z,4.93
2022-08-22T07:16:52.298Z,5.22
2022-08-22T07:19:45.804Z,5.72
2022-08-22T07:22:17.070Z,9.63
2022-08-22T07:24:50.827Z,7.30
2022-08-22T07:27:50.317Z,5.10
2022-08-22T07:30:27.851Z,9.27
2022-08-22T07:33:26.645Z,7.07
2022-08-22T07:36:02.235Z,6.93
2022-08-22T07:38:47.705Z,8.35
2022-08-22T07:41:29.815Z,5.18
2022-08-22T07:46:39.457Z,5.40
2022-08-22T07:49:24.556Z,8.85
2022-08-22T07:52:00.778Z,4.28
2022-08-22T07:55:12.044Z,8.15
2022-08-22T07:57:43.920Z,4.82
2022-08-22T08:00:20.011Z,5.20
2022-08-22T08:02:51.670Z,5.05
2022-08-22T08:05:21.272Z,5.28
2022-08-22T08:07:49.405Z,5.05
2022-08-22T08:10:24.209Z,5.03
2022-08-22T08:13:02.626Z,5.45
2022-08-22T08:15:32.431Z,5.38
2022-08-22T08:18:12.833Z,6.07
2022-08-22T08:20:40.480Z,3.80
2022-08-22T08:23:10.740Z,4.82
2022-08-22T08:26:16.166Z,5.20
2022-08-22T08:28:52.461Z,3.00
2022-08-22T08:31:43.187Z,7.95
2022-08-22T08:34:22.219Z,8.05
2022-08-22T08:37:09.432Z,5.13
2022-08-22T08:39:48.644Z,4.32
2022-08-22T08:42:18.437Z,6.03
2022-08-22T08:44:51.341Z,6.40
2022-08-22T08:47:37.001Z,4.82
2022-08-22T08:50:29.498Z,6.45
2022-08-22T08:53:18.209Z,7.03
2022-08-22T08:56:04.925Z,9.18
2022-08-22T08:58:49.682Z,6.47
2022-08-22T09:01:49.007Z,6.43
2022-08-22T09:04:52.647Z,9.57
2022-08-22T09:07:44.325Z,11.38
2022-08-22T09:10:48.563Z,8.23
2022-08-22T09:13:44.521Z,6.28
2022-08-22T09:16:17.477Z,10.43
2022-08-22T09:19:04.270Z,8.63
2022-08-22T09:21:59.090Z,7.80
2022-08-22T09:24:37.502Z,5.57
2022-08-22T09:27:16.425Z,7.53
2022-08-22T09:30:05.893Z,7.45
2022-08-22T09:32:52.766Z,4.95
2022-08-22T09:35:38.414Z,5.55
2022-08-22T09:38:51.246Z,9.35
2022-08-22T09:41:38.099Z,9.00
2022-08-22T09:44:24.812Z,6.80
2022-08-22T09:47:15.745Z,7.00
2022-08-22T09:50:06.772Z,10.02
2022-08-22T09:53:06.780Z,6.93
2022-08-22T09:55:48.034Z,6.65
2022-08-22T09:58:41.541Z,6.85
2022-08-22T10:01:32.780Z,6.20
2022-08-22T10:04:03.301Z,4.65
2022-08-22T10:06:51.226Z,3.97
2022-08-22T10:09:47.393Z,5.22
2022-08-22T10:12:35.124Z,5.53
2022-08-22T10:15:21.666Z,5.90
2022-08-22T10:18:10.427Z,5.43
2022-08-22T10:21:02.664Z,6.28
2022-08-22T10:23:41.769Z,4.47
2022-08-22T10:26:36.516Z,5.35
2022-08-22T10:29:38.910Z,7.97
2022-08-22T10:32:16.434Z,4.22
2022-08-22T10:34:48.832Z,4.90
2022-08-22T10:37:32.842Z,4.35
2022-08-22T10:40:13.424Z,8.18
2022-08-22T10:43:09.373Z,5.70
2022-08-22T10:45:47.037Z,5.15
2022-08-22T10:48:43.606Z,10.50
2022-08-22T10:51:23.910Z,4.47
2022-08-22T10:54:19.899Z,7.13
2022-08-22T10:57:11.549Z,5.22
2022-08-22T10:59:46.279Z,6.30
2022-08-22T11:02:36.859Z,5.90
2022-08-22T11:05:29.642Z,3.75
2022-08-22T11:08:34.613Z,3.47
2022-08-22T11:11:17.662Z,8.25
2022-08-22T11:13:56.742Z,4.82
2022-08-22T11:17:27.599Z,5.72
2022-08-22T11:20:22.216Z,3.95
2022-08-22T11:23:12.675Z,8.43
2022-08-22T11:26:07.782Z,4.47
2022-08-22T11:28:43.785Z,6.65
2022-08-22T11:31:26.070Z,4.35
2022-08-22T11:34:30.342Z,6.07
2022-08-22T11:37:11.619Z,6.10
2022-08-22T11:39:45.570Z,6.30
2022-08-22T11:42:31.369Z,5.32
2022-08-22T11:45:05.270Z,6.65
2022-08-22T11:47:45.331Z,6.15
2022-08-22T11:50:29.745Z,4.53
2022-08-22T11:53:33.038Z,6.65
2022-08-22T11:56:10.414Z,6.10
2022-08-22T11:59:06.225Z,5.55
2022-08-22T12:01:49.056Z,9.30
2022-08-22T12:04:28.721Z,5.38
2022-08-22T12:07:22.034Z,5.50
2022-08-22T12:10:03.737Z,7.60
2022-08-22T12:13:01.507Z,8.73
2022-08-22T12:15:40.455Z,9.95
2022-08-22T12:18:36.121Z,6.68
2022-08-22T12:21:23.137Z,8.40
2022-08-22T12:24:06.164Z,7.13
2022-08-22T12:26:45.462Z,13.57
2022-08-22T12:29:39.700Z,5.97
2022-08-22T12:32:28.635Z,37.78
2022-08-22T12:35:20.654Z,20.35
2022-08-22T12:38:29.091Z,14.30
2022-08-22T12:41:28.132Z,18.15
2022-08-22T12:44:02.341Z,16.80
2022-08-22T12:46:56.338Z,7.93
2022-08-22T12:50:06.722Z,16.42
2022-08-22T12:52:56.327Z,13.10
2022-08-22T12:55:40.436Z,21.67
2022-08-22T13:00:44.114Z,32.17
2022-08-22T13:03:25.772Z,29.73
2022-08-22T13:05:57.256Z,33.17
2022-08-22T13:08:36.049Z,23.65
2022-08-22T13:11:22.319Z,16.80
2022-08-22T13:14:00.292Z,16.80
2022-08-22T13:16:39.033Z,11.63
2022-08-22T13:19:13.645Z,12.48
2022-08-22T13:21:48.878Z,11.05
2022-08-22T13:24:38.598Z,10.48
2022-08-22T13:27:14.961Z,10.38
2022-08-22T13:29:53.148Z,9.27
2022-08-22T13:32:33.841Z,8.13
2022-08-22T13:35:03.071Z,12.55
2022-08-22T13:37:44.475Z,10.93
2022-08-22T13:40:21.525Z,12.15
2022-08-22T13:43:02.836Z,9.90
2022-08-22T13:45:32.882Z,12.60
2022-08-22T13:48:04.046Z,10.02
2022-08-22T13:50:58.746Z,9.02
2022-08-22T13:54:00.382Z,12.75
2022-08-22T13:56:47.188Z,7.28
2022-08-22T13:59:49.069Z,8.27
2022-08-22T14:02:51.373Z,9.32
2022-08-22T14:05:48.953Z,5.53
2022-08-22T14:08:20.776Z,7.80
2022-08-22T14:10:55.336Z,9.70
2022-08-22T14:13:37.104Z,6.53
2022-08-22T14:16:19.593Z,5.75
2022-08-22T14:18:55.080Z,6.13
2022-08-22T14:21:51.999Z,7.10
2022-08-22T14:24:30.925Z,7.70
2022-08-22T14:27:41.481Z,6.35
2022-08-22T14:30:19.006Z,8.38
2022-08-22T14:32:59.399Z,8.45
2022-08-22T14:35:57.737Z,8.95
2022-08-22T14:38:39.128Z,9.40
2022-08-22T14:41:52.710Z,10.05
2022-08-22T14:44:28.008Z,8.50
2022-08-22T14:47:12.514Z,6.85
2022-08-22T14:49:59.202Z,6.57
2022-08-22T14:52:43.158Z,9.23
2022-08-22T14:55:15.136Z,7.53
2022-08-22T14:58:03.221Z,7.13
2022-08-22T15:00:40.252Z,11.10
2022-08-22T15:03:17.523Z,8.40
2022-08-22T15:05:53.639Z,8.93
2022-08-22T15:08:34.789Z,7.10
2022-08-22T15:11:14.525Z,7.65
2022-08-22T15:14:12.790Z,7.00
2022-08-22T15:16:46.565Z,11.05
2022-08-22T15:19:36.514Z,9.82
2022-08-22T15:22:28.304Z,6.68
2022-08-22T15:25:18.658Z,9.57
2022-08-22T15:27:52.956Z,8.23
2022-08-22T15:30:34.578Z,8.00
2022-08-22T15:33:37.992Z,9.98
2022-08-22T15:36:15.939Z,10.70
2022-08-22T15:38:56.265Z,9.95
2022-08-22T15:41:36.986Z,11.65
2022-08-22T15:44:32.418Z,11.40
2022-08-22T15:47:25.496Z,7.45
2022-08-22T15:50:00.460Z,11.27
2022-08-22T15:52:32.210Z,6.68
2022-08-22T15:55:17.044Z,7.30
2022-08-22T15:57:57.663Z,8.07
2022-08-22T16:00:33.480Z,7.47
2022-08-22T16:03:34.477Z,8.23
2022-08-22T16:06:08.165Z,6.30
2022-08-22T16:08:52.194Z,5.38
2022-08-22T16:11:33.417Z,6.55
2022-08-22T16:14:21.772Z,8.18
2022-08-22T16:16:56.849Z,7.20
2022-08-22T16:19:27.511Z,8.07
2022-08-22T16:21:59.659Z,7.03
2022-08-22T16:24:27.040Z,9.98
2022-08-22T16:26:54.722Z,6.35
2022-08-22T16:29:41.551Z,9.60
2022-08-22T16:32:12.515Z,8.90
2022-08-22T16:34:46.020Z,8.48
2022-08-22T16:37:18.182Z,8.57
2022-08-22T16:39:52.607Z,11.20
2022-08-22T16:42:22.100Z,6.38
2022-08-22T16:45:05.484Z,8.27
2022-08-22T16:47:41.950Z,5.57
2022-08-22T16:50:27.204Z,6.57
2022-08-22T16:53:00.326Z,8.27
2022-08-22T16:55:30.335Z,6.65
2022-08-22T16:58:10.595Z,7.80
2022-08-22T17:01:10.843Z,8.60
2022-08-22T17:03:45.674Z,8.60
2022-08-22T17:06:21.019Z,5.80
2022-08-22T17:08:51.427Z,7.22
2022-08-22T17:11:41.348Z,6.43
2022-08-22T17:14:45.786Z,8.98
2022-08-22T17:17:25.464Z,6.85
2022-08-22T17:20:08.472Z,7.75
2022-08-22T17:22:54.638Z,9.68
2022-08-22T17:25:35.170Z,5.38
2022-08-22T17:28:40.523Z,10.60
2022-08-22T17:31:30.365Z,7.53
2022-08-22T17:34:29.528Z,11.02
2022-08-22T17:37:21.820Z,8.65
2022-08-22T17:40:06.954Z,9.27
2022-08-22T17:42:54.015Z,9.27
2022-08-22T17:45:39.992Z,9.68
2022-08-22T17:48:26.052Z,11.77
2022-08-22T17:50:58.196Z,9.60
2022-08-22T17:53:43.538Z,7.13
2022-08-22T17:56:19.258Z,9.90
2022-08-22T17:58:58.951Z,11.52
2022-08-22T18:01:47.760Z,7.07
2022-08-22T18:04:25.686Z,9.90
2022-08-22T18:07:22.139Z,8.43
2022-08-22T18:10:01.127Z,7.15
2022-08-22T18:12:40.624Z,7.18
2022-08-22T18:15:25.728Z,9.75
2022-08-22T18:18:03.318Z,6.20
2022-08-22T18:20:50.206Z,9.88
2022-08-22T18:23:36.206Z,7.55
2022-08-22T18:26:13.278Z,9.48
2022-08-22T18:31:24.975Z,7.43
2022-08-22T18:34:06.632Z,10.95
2022-08-22T18:36:47.808Z,9.57
2022-08-22T18:39:29.078Z,10.77
2022-08-22T18:42:22.834Z,12.00
2022-08-22T18:47:25.854Z,12.77
2022-08-22T18:49:55.992Z,12.95
2022-08-22T18:52:26.285Z,14.80
2022-08-22T18:55:15.764Z,10.85
2022-08-22T18:58:02.420Z,15.63
2022-08-22T19:00:41.692Z,13.60
2022-08-22T19:03:36.290Z,12.85
2022-08-22T19:06:21.908Z,17.80
2022-08-22T19:09:18.810Z,18.42
2022-08-22T19:11:59.015Z,16.05
2022-08-22T19:14:41.192Z,14.57
2022-08-22T19:17:15.063Z,10.68
2022-08-22T19:20:20.010Z,12.90
2022-08-22T19:22:51.109Z,9.25
2022-08-22T19:25:27.772Z,10.52
2022-08-22T19:28:07.275Z,13.23
2022-08-22T19:30:34.644Z,11.50
2022-08-22T19:33:11.725Z,11.23
2022-08-22T19:35:42.114Z,12.27
2022-08-22T19:38:11.031Z,16.67
2022-08-22T19:40:58.286Z,16.15
2022-08-22T19:43:38.695Z,13.68
2022-08-22T19:46:11.232Z,13.27
2022-08-22T19:48:47.378Z,12.98
2022-08-22T19:51:29.159Z,14.77
2022-08-22T19:54:02.654Z,14.05
2022-08-22T19:56:51.714Z,14.55
2022-08-22T19:59:46.780Z,16.80
2022-08-22T20:02:33.643Z,17.73
2022-08-22T20:05:00.880Z,16.98
2022-08-22T20:10:49.514Z,16.08
2022-08-22T20:13:26.293Z,14.32
2022-08-22T20:16:44.647Z,12.60
2022-08-22T20:19:12.188Z,15.93
2022-08-22T20:21:53.482Z,11.38
2022-08-22T20:25:05.077Z,10.75
2022-08-22T20:27:38.320Z,10.75
2022-08-22T20:30:24.917Z,9.98
2022-08-22T20:33:07.947Z,9.27
2022-08-22T20:35:41.439Z,11.38
2022-08-22T20:38:16.786Z,12.02
2022-08-22T20:40:57.215Z,10.85
2022-08-22T20:43:35.875Z,9.95
2022-08-22T20:46:25.199Z,11.40
2022-08-22T20:48:55.038Z,10.43
2022-08-22T20:51:25.635Z,10.13
2022-08-22T20:53:59.205Z,9.70
2022-08-22T20:56:52.699Z,11.70
2022-08-22T20:59:41.991Z,12.15
2022-08-22T21:02:15.520Z,11.15
2022-08-22T21:05:08.883Z,10.82
2022-08-22T21:10:26.105Z,8.77
2022-08-22T21:13:01.363Z,9.43
2022-08-22T21:15:56.467Z,7.93
2022-08-22T21:18:34.224Z,8.40
2022-08-22T21:21:07.026Z,8.52
2022-08-22T21:23:37.994Z,11.15
2022-08-22T21:26:10.618Z,7.50
2022-08-22T21:28:55.772Z,10.70
2022-08-22T21:31:27.379Z,7.75
2022-08-22T21:33:56.912Z,7.82
2022-08-22T21:36:27.799Z,7.60
2022-08-22T21:39:20.577Z,7.47
2022-08-22T21:41:55.181Z,7.18
2022-08-22T21:44:38.575Z,8.73
2022-08-22T21:47:30.760Z,7.32
2022-08-22T21:50:16.241Z,11.20
2022-08-22T21:53:14.096Z,10.27
2022-08-22T21:55:43.371Z,8.88
2022-08-22T21:58:36.793Z,7.28
2022-08-22T22:01:28.900Z,8.10
2022-08-22T22:03:57.510Z,6.93
2022-08-22T22:06:25.588Z,6.72
2022-08-22T22:08:52.915Z,5.15
2022-08-22T22:11:20.238Z,4.97
2022-08-22T22:13:47.654Z,7.47
2022-08-22T22:16:22.378Z,6.88
2022-08-22T22:18:49.680Z,8.77
2022-08-22T22:21:17.115Z,13.27
2022-08-22T22:23:44.370Z,7.18
2022-08-22T22:26:12.296Z,8.88
2022-08-22T22:28:47.490Z,7.75
2022-08-22T22:31:18.466Z,7.57
2022-08-22T22:33:46.361Z,7.22
2022-08-22T22:36:21.024Z,6.10
2022-08-22T22:38:51.499Z,6.70
2022-08-22T22:41:21.410Z,6.25
2022-08-22T22:43:48.657Z,5.53
2022-08-22T22:46:15.863Z,10.77
2022-08-22T22:48:43.034Z,9.70
2022-08-22T22:51:12.618Z,6.05
2022-08-22T22:53:42.900Z,7.65
2022-08-22T22:56:15.780Z,6.10
2022-08-22T22:58:43.917Z,7.65
2022-08-22T23:01:21.007Z,7.10
2022-08-22T23:03:52.540Z,7.10
2022-08-22T23:06:22.461Z,7.35
2022-08-22T23:08:50.314Z,5.85
2022-08-22T23:11:25.525Z,7.47
2022-08-22T23:13:53.053Z,8.82
2022-08-22T23:16:23.786Z,9.00
2022-08-22T23:18:51.107Z,7.10
2022-08-22T23:21:19.845Z,8.85
2022-08-22T23:23:48.971Z,7.18
2022-08-22T23:26:16.683Z,6.22
2022-08-22T23:28:44.526Z,6.03
2022-08-22T23:31:24.308Z,7.35
2022-08-22T23:33:51.458Z,7.22
2022-08-22T23:36:21.150Z,7.35
2022-08-22T23:38:49.889Z,6.38
2022-08-22T23:41:18.678Z,5.40
2022-08-22T23:43:49.813Z,8.98
2022-08-22T23:46:18.965Z,5.65
2022-08-22T23:48:46.806Z,5.55
2022-08-22T23:51:16.649Z,8.45
2022-08-22T23:53:44.802Z,5.65
2022-08-22T23:56:22.517Z,7.03
2022-08-22T23:58:50.658Z,5.20
